sensor_id;sensor_type;location;lat;lon;timestamp;temperature;humidity
13711;DHT22;6927;51.256;9.410;2024-02-21T00:01:35;6.40;1.00
13711;DHT22;6927;51.256;9.410;2024-02-21T00:04:01;6.40;1.00
13711;DHT22;6927;51.256;9.410;2024-02-21T00:06:26;6.40;1.00
13711;DHT22;6927;51.256;9.410;2024-02-21T00:08:52;6.30;22.90
13711;DHT22;6927;51.256;9.410;2024-02-21T00:11:17;6.30;17.00
13711;DHT22;6927;51.256;9.410;2024-02-21T00:13:43;6.30;34.70
13711;DHT22;6927;51.256;9.410;2024-02-21T00:16:08;6.30;38.30
13711;DHT22;6927;51.256;9.410;2024-02-21T00:18:34;6.30;62.30
13711;DHT22;6927;51.256;9.410;2024-02-21T00:20:59;6.30;64.80
13711;DHT22;6927;51.256;9.410;2024-02-21T00:23:27;6.30;75.30
13711;DHT22;6927;51.256;9.410;2024-02-21T00:25:53;6.30;90.60
13711;DHT22;6927;51.256;9.410;2024-02-21T00:28:19;6.20;99.40
13711;DHT22;6927;51.256;9.410;2024-02-21T00:30:45;6.30;99.90
13711;DHT22;6927;51.256;9.410;2024-02-21T00:33:13;6.20;99.90
13711;DHT22;6927;51.256;9.410;2024-02-21T00:35:38;6.30;99.90
13711;DHT22;6927;51.256;9.410;2024-02-21T00:38:04;6.30;99.90
13711;DHT22;6927;51.256;9.410;2024-02-21T00:40:29;6.30;99.90
13711;DHT22;6927;51.256;9.410;2024-02-21T00:42:55;6.30;99.90
13711;DHT22;6927;51.256;9.410;2024-02-21T00:45:20;6.30;99.90
13711;DHT22;6927;51.256;9.410;2024-02-21T00:47:46;6.30;99.90
13711;DHT22;6927;51.256;9.410;2024-02-21T00:50:12;6.30;99.90
13711;DHT22;6927;51.256;9.410;2024-02-21T00:52:37;6.30;99.90
13711;DHT22;6927;51.256;9.410;2024-02-21T00:55:04;6.30;99.90
13711;DHT22;6927;51.256;9.410;2024-02-21T00:57:29;6.40;98.10
13711;DHT22;6927;51.256;9.410;2024-02-21T00:59:55;6.40;96.20
13711;DHT22;6927;51.256;9.410;2024-02-21T01:02:20;6.40;99.90
13711;DHT22;6927;51.256;9.410;2024-02-21T01:04:46;6.40;99.90
13711;DHT22;6927;51.256;9.410;2024-02-21T01:07:12;6.40;99.90
13711;DHT22;6927;51.256;9.410;2024-02-21T01:09:37;6.40;99.90
13711;DHT22;6927;51.256;9.410;2024-02-21T01:12:03;6.50;68.70
13711;DHT22;6927;51.256;9.410;2024-02-21T01:14:29;6.50;99.90
13711;DHT22;6927;51.256;9.410;2024-02-21T01:16:54;6.50;55.30
13711;DHT22;6927;51.256;9.410;2024-02-21T01:19:20;6.60;69.40
13711;DHT22;6927;51.256;9.410;2024-02-21T01:21:46;6.60;95.60
13711;DHT22;6927;51.256;9.410;2024-02-21T01:24:11;6.60;72.20
13711;DHT22;6927;51.256;9.410;2024-02-21T01:26:37;6.60;28.40
13711;DHT22;6927;51.256;9.410;2024-02-21T01:29:02;6.60;21.80
13711;DHT22;6927;51.256;9.410;2024-02-21T01:31:28;6.60;30.40
13711;DHT22;6927;51.256;9.410;2024-02-21T01:33:53;6.60;45.70
13711;DHT22;6927;51.256;9.410;2024-02-21T01:36:19;6.60;20.20
13711;DHT22;6927;51.256;9.410;2024-02-21T01:38:44;6.60;42.40
13711;DHT22;6927;51.256;9.410;2024-02-21T01:41:10;6.60;23.20
13711;DHT22;6927;51.256;9.410;2024-02-21T01:43:35;6.70;29.70
13711;DHT22;6927;51.256;9.410;2024-02-21T01:46:01;6.70;55.00
13711;DHT22;6927;51.256;9.410;2024-02-21T01:48:27;6.70;32.10
13711;DHT22;6927;51.256;9.410;2024-02-21T01:50:54;6.70;22.00
13711;DHT22;6927;51.256;9.410;2024-02-21T01:53:30;6.70;21.70
13711;DHT22;6927;51.256;9.410;2024-02-21T01:55:58;6.70;1.00
13711;DHT22;6927;51.256;9.410;2024-02-21T01:58:24;6.70;7.20
13711;DHT22;6927;51.256;9.410;2024-02-21T02:00:50;6.80;7.30
13711;DHT22;6927;51.256;9.410;2024-02-21T02:03:16;6.80;10.10
13711;DHT22;6927;51.256;9.410;2024-02-21T02:05:45;6.70;23.00
13711;DHT22;6927;51.256;9.410;2024-02-21T02:08:15;6.70;11.00
13711;DHT22;6927;51.256;9.410;2024-02-21T02:10:41;6.80;6.60
13711;DHT22;6927;51.256;9.410;2024-02-21T02:13:07;6.80;12.90
13711;DHT22;6927;51.256;9.410;2024-02-21T02:15:43;6.70;1.00
13711;DHT22;6927;51.256;9.410;2024-02-21T02:18:10;6.70;1.00
13711;DHT22;6927;51.256;9.410;2024-02-21T02:20:36;6.70;1.00
13711;DHT22;6927;51.256;9.410;2024-02-21T02:23:10;6.70;2.70
13711;DHT22;6927;51.256;9.410;2024-02-21T02:25:37;6.70;1.00
13711;DHT22;6927;51.256;9.410;2024-02-21T02:28:06;6.70;5.00
13711;DHT22;6927;51.256;9.410;2024-02-21T02:30:36;6.70;2.30
13711;DHT22;6927;51.256;9.410;2024-02-21T02:33:03;6.70;11.10
13711;DHT22;6927;51.256;9.410;2024-02-21T02:35:29;6.70;1.00
13711;DHT22;6927;51.256;9.410;2024-02-21T02:37:54;6.70;1.00
13711;DHT22;6927;51.256;9.410;2024-02-21T02:40:20;6.80;6.20
13711;DHT22;6927;51.256;9.410;2024-02-21T02:42:45;6.80;2.20
13711;DHT22;6927;51.256;9.410;2024-02-21T02:45:12;6.80;4.40
13711;DHT22;6927;51.256;9.410;2024-02-21T02:47:39;6.80;1.00
13711;DHT22;6927;51.256;9.410;2024-02-21T02:50:06;6.80;1.00
13711;DHT22;6927;51.256;9.410;2024-02-21T02:52:31;6.80;8.50
13711;DHT22;6927;51.256;9.410;2024-02-21T02:54:57;6.80;9.60
13711;DHT22;6927;51.256;9.410;2024-02-21T02:57:23;6.90;11.60
13711;DHT22;6927;51.256;9.410;2024-02-21T02:59:49;6.90;1.00
13711;DHT22;6927;51.256;9.410;2024-02-21T03:02:15;6.90;6.40
13711;DHT22;6927;51.256;9.410;2024-02-21T03:04:40;6.90;1.00
13711;DHT22;6927;51.256;9.410;2024-02-21T03:07:06;6.80;1.00
13711;DHT22;6927;51.256;9.410;2024-02-21T03:09:32;6.80;1.00
13711;DHT22;6927;51.256;9.410;2024-02-21T03:11:57;6.80;1.00
13711;DHT22;6927;51.256;9.410;2024-02-21T03:14:31;6.80;1.00
13711;DHT22;6927;51.256;9.410;2024-02-21T03:16:58;6.80;1.00
13711;DHT22;6927;51.256;9.410;2024-02-21T03:19:24;6.80;1.00
13711;DHT22;6927;51.256;9.410;2024-02-21T03:21:50;6.80;1.00
13711;DHT22;6927;51.256;9.410;2024-02-21T03:24:16;6.80;1.00
13711;DHT22;6927;51.256;9.410;2024-02-21T03:26:42;6.90;1.00
13711;DHT22;6927;51.256;9.410;2024-02-21T03:29:08;6.80;1.00
13711;DHT22;6927;51.256;9.410;2024-02-21T03:31:34;6.80;1.00
13711;DHT22;6927;51.256;9.410;2024-02-21T03:34:00;6.90;1.00
13711;DHT22;6927;51.256;9.410;2024-02-21T03:36:26;6.80;1.00
13711;DHT22;6927;51.256;9.410;2024-02-21T03:38:51;6.80;1.00
13711;DHT22;6927;51.256;9.410;2024-02-21T03:41:17;6.80;1.00
13711;DHT22;6927;51.256;9.410;2024-02-21T03:43:43;6.90;1.00
13711;DHT22;6927;51.256;9.410;2024-02-21T03:46:08;6.90;1.00
13711;DHT22;6927;51.256;9.410;2024-02-21T03:48:34;6.90;1.00
13711;DHT22;6927;51.256;9.410;2024-02-21T03:50:59;6.90;1.00
13711;DHT22;6927;51.256;9.410;2024-02-21T03:53:25;6.90;1.00
13711;DHT22;6927;51.256;9.410;2024-02-21T03:55:50;6.90;1.00
13711;DHT22;6927;51.256;9.410;2024-02-21T03:58:16;6.90;1.00
13711;DHT22;6927;51.256;9.410;2024-02-21T04:00:42;6.90;1.00
13711;DHT22;6927;51.256;9.410;2024-02-21T04:03:07;6.90;1.00
13711;DHT22;6927;51.256;9.410;2024-02-21T04:05:33;7.00;1.00
13711;DHT22;6927;51.256;9.410;2024-02-21T04:07:58;7.00;1.00
13711;DHT22;6927;51.256;9.410;2024-02-21T04:10:24;7.00;1.00
13711;DHT22;6927;51.256;9.410;2024-02-21T04:12:49;6.90;1.00
13711;DHT22;6927;51.256;9.410;2024-02-21T04:15:16;7.00;1.00
13711;DHT22;6927;51.256;9.410;2024-02-21T04:17:42;6.90;1.00
13711;DHT22;6927;51.256;9.410;2024-02-21T04:20:14;7.00;1.00
13711;DHT22;6927;51.256;9.410;2024-02-21T04:22:40;7.00;1.00
13711;DHT22;6927;51.256;9.410;2024-02-21T04:25:06;6.90;1.00
13711;DHT22;6927;51.256;9.410;2024-02-21T04:27:31;7.00;1.00
13711;DHT22;6927;51.256;9.410;2024-02-21T04:29:57;7.00;1.00
13711;DHT22;6927;51.256;9.410;2024-02-21T04:32:23;7.00;1.00
13711;DHT22;6927;51.256;9.410;2024-02-21T04:34:48;7.00;1.00
13711;DHT22;6927;51.256;9.410;2024-02-21T04:37:14;7.00;1.00
13711;DHT22;6927;51.256;9.410;2024-02-21T04:39:40;7.00;1.00
13711;DHT22;6927;51.256;9.410;2024-02-21T04:42:05;7.00;1.00
13711;DHT22;6927;51.256;9.410;2024-02-21T04:44:31;7.00;1.00
13711;DHT22;6927;51.256;9.410;2024-02-21T04:46:56;7.00;1.00
13711;DHT22;6927;51.256;9.410;2024-02-21T04:49:22;7.00;1.00
13711;DHT22;6927;51.256;9.410;2024-02-21T04:51:47;7.00;1.00
13711;DHT22;6927;51.256;9.410;2024-02-21T04:54:13;7.00;1.00
13711;DHT22;6927;51.256;9.410;2024-02-21T04:56:38;7.00;1.00
13711;DHT22;6927;51.256;9.410;2024-02-21T04:59:04;7.00;1.00
13711;DHT22;6927;51.256;9.410;2024-02-21T05:01:29;7.00;1.00
13711;DHT22;6927;51.256;9.410;2024-02-21T05:03:55;6.90;1.00
13711;DHT22;6927;51.256;9.410;2024-02-21T05:06:20;6.90;1.00
13711;DHT22;6927;51.256;9.410;2024-02-21T05:08:47;7.00;1.00
13711;DHT22;6927;51.256;9.410;2024-02-21T05:11:13;6.90;1.00
13711;DHT22;6927;51.256;9.410;2024-02-21T05:13:38;6.90;1.00
13711;DHT22;6927;51.256;9.410;2024-02-21T05:16:05;6.90;1.00
13711;DHT22;6927;51.256;9.410;2024-02-21T05:18:30;6.90;1.00
13711;DHT22;6927;51.256;9.410;2024-02-21T05:20:56;6.90;1.00
13711;DHT22;6927;51.256;9.410;2024-02-21T05:23:21;6.90;1.00
13711;DHT22;6927;51.256;9.410;2024-02-21T05:25:47;6.90;1.00
13711;DHT22;6927;51.256;9.410;2024-02-21T05:28:12;6.90;1.00
13711;DHT22;6927;51.256;9.410;2024-02-21T05:30:38;6.90;1.00
13711;DHT22;6927;51.256;9.410;2024-02-21T05:33:07;6.90;1.00
13711;DHT22;6927;51.256;9.410;2024-02-21T05:35:33;6.90;1.00
13711;DHT22;6927;51.256;9.410;2024-02-21T05:37:59;6.90;1.00
13711;DHT22;6927;51.256;9.410;2024-02-21T05:40:25;6.90;1.00
13711;DHT22;6927;51.256;9.410;2024-02-21T05:42:51;6.90;1.00
13711;DHT22;6927;51.256;9.410;2024-02-21T05:45:17;6.90;1.00
13711;DHT22;6927;51.256;9.410;2024-02-21T05:47:43;6.90;1.00
13711;DHT22;6927;51.256;9.410;2024-02-21T05:50:09;7.00;1.00
13711;DHT22;6927;51.256;9.410;2024-02-21T05:52:35;7.00;1.00
13711;DHT22;6927;51.256;9.410;2024-02-21T05:55:00;7.00;1.00
13711;DHT22;6927;51.256;9.410;2024-02-21T05:57:27;7.00;1.00
13711;DHT22;6927;51.256;9.410;2024-02-21T05:59:53;7.00;1.00
13711;DHT22;6927;51.256;9.410;2024-02-21T06:02:18;7.00;1.00
13711;DHT22;6927;51.256;9.410;2024-02-21T06:04:44;7.00;1.00
13711;DHT22;6927;51.256;9.410;2024-02-21T06:07:09;7.00;1.00
13711;DHT22;6927;51.256;9.410;2024-02-21T06:09:35;7.00;1.00
13711;DHT22;6927;51.256;9.410;2024-02-21T06:12:01;7.00;1.00
13711;DHT22;6927;51.256;9.410;2024-02-21T06:14:26;7.00;1.00
13711;DHT22;6927;51.256;9.410;2024-02-21T06:16:52;7.00;1.00
13711;DHT22;6927;51.256;9.410;2024-02-21T06:19:17;7.00;1.00
13711;DHT22;6927;51.256;9.410;2024-02-21T06:21:43;7.00;1.00
13711;DHT22;6927;51.256;9.410;2024-02-21T06:24:08;7.00;1.00
13711;DHT22;6927;51.256;9.410;2024-02-21T06:26:34;7.00;1.00
13711;DHT22;6927;51.256;9.410;2024-02-21T06:29:00;7.00;1.00
13711;DHT22;6927;51.256;9.410;2024-02-21T06:31:26;7.00;1.00
13711;DHT22;6927;51.256;9.410;2024-02-21T06:33:52;7.00;1.00
13711;DHT22;6927;51.256;9.410;2024-02-21T06:36:17;7.00;1.00
13711;DHT22;6927;51.256;9.410;2024-02-21T06:38:43;7.00;1.00
13711;DHT22;6927;51.256;9.410;2024-02-21T06:41:16;7.00;1.00
13711;DHT22;6927;51.256;9.410;2024-02-21T06:43:42;7.00;1.00
13711;DHT22;6927;51.256;9.410;2024-02-21T06:46:07;7.00;1.00
13711;DHT22;6927;51.256;9.410;2024-02-21T06:48:33;7.00;1.00
13711;DHT22;6927;51.256;9.410;2024-02-21T06:50:58;7.00;1.00
13711;DHT22;6927;51.256;9.410;2024-02-21T06:53:24;7.00;1.00
13711;DHT22;6927;51.256;9.410;2024-02-21T06:55:49;7.00;1.00
13711;DHT22;6927;51.256;9.410;2024-02-21T06:58:15;7.00;1.00
13711;DHT22;6927;51.256;9.410;2024-02-21T07:00:42;7.00;1.00
13711;DHT22;6927;51.256;9.410;2024-02-21T07:03:07;7.00;1.00
13711;DHT22;6927;51.256;9.410;2024-02-21T07:05:33;7.00;1.00
13711;DHT22;6927;51.256;9.410;2024-02-21T07:07:59;7.10;1.00
13711;DHT22;6927;51.256;9.410;2024-02-21T07:10:24;7.10;1.00
13711;DHT22;6927;51.256;9.410;2024-02-21T07:12:50;7.00;1.00
13711;DHT22;6927;51.256;9.410;2024-02-21T07:15:17;7.00;1.00
13711;DHT22;6927;51.256;9.410;2024-02-21T07:17:42;7.00;1.00
13711;DHT22;6927;51.256;9.410;2024-02-21T07:20:08;7.10;1.00
13711;DHT22;6927;51.256;9.410;2024-02-21T07:22:34;7.10;1.00
13711;DHT22;6927;51.256;9.410;2024-02-21T07:24:59;7.20;1.00
13711;DHT22;6927;51.256;9.410;2024-02-21T07:27:25;7.20;1.00
13711;DHT22;6927;51.256;9.410;2024-02-21T07:29:53;7.20;1.00
13711;DHT22;6927;51.256;9.410;2024-02-21T07:32:19;7.20;1.00
13711;DHT22;6927;51.256;9.410;2024-02-21T07:34:44;7.30;1.00
13711;DHT22;6927;51.256;9.410;2024-02-21T07:37:10;7.30;1.00
13711;DHT22;6927;51.256;9.410;2024-02-21T07:39:36;7.40;1.00
13711;DHT22;6927;51.256;9.410;2024-02-21T07:42:03;7.50;1.00
13711;DHT22;6927;51.256;9.410;2024-02-21T07:44:28;7.50;1.00
13711;DHT22;6927;51.256;9.410;2024-02-21T07:50:16;7.60;1.00
13711;DHT22;6927;51.256;9.410;2024-02-21T07:52:42;7.70;1.00
13711;DHT22;6927;51.256;9.410;2024-02-21T07:55:08;7.80;1.00
13711;DHT22;6927;51.256;9.410;2024-02-21T07:57:36;7.80;1.00
13711;DHT22;6927;51.256;9.410;2024-02-21T08:00:01;7.90;99.90
13711;DHT22;6927;51.256;9.410;2024-02-21T08:02:27;7.90;99.90
13711;DHT22;6927;51.256;9.410;2024-02-21T08:04:53;8.00;99.90
13711;DHT22;6927;51.256;9.410;2024-02-21T08:07:18;8.00;99.90
13711;DHT22;6927;51.256;9.410;2024-02-21T08:09:44;8.10;99.90
13711;DHT22;6927;51.256;9.410;2024-02-21T08:12:09;8.10;99.90
13711;DHT22;6927;51.256;9.410;2024-02-21T08:14:35;8.30;99.90
13711;DHT22;6927;51.256;9.410;2024-02-21T08:17:00;8.40;99.90
13711;DHT22;6927;51.256;9.410;2024-02-21T08:19:26;8.60;1.00
13711;DHT22;6927;51.256;9.410;2024-02-21T08:21:51;8.60;1.00
13711;DHT22;6927;51.256;9.410;2024-02-21T08:24:17;8.60;1.00
13711;DHT22;6927;51.256;9.410;2024-02-21T08:26:43;8.70;1.00
13711;DHT22;6927;51.256;9.410;2024-02-21T08:29:10;8.90;99.90
13711;DHT22;6927;51.256;9.410;2024-02-21T08:31:37;9.00;99.90
13711;DHT22;6927;51.256;9.410;2024-02-21T08:34:03;9.00;1.00
13711;DHT22;6927;51.256;9.410;2024-02-21T08:36:33;9.10;1.00
13711;DHT22;6927;51.256;9.410;2024-02-21T08:38:59;9.20;56.80
13711;DHT22;6927;51.256;9.410;2024-02-21T08:41:25;9.30;1.00
13711;DHT22;6927;51.256;9.410;2024-02-21T08:43:54;9.30;1.00
13711;DHT22;6927;51.256;9.410;2024-02-21T08:46:20;9.30;1.00
13711;DHT22;6927;51.256;9.410;2024-02-21T08:48:46;9.60;99.90
13711;DHT22;6927;51.256;9.410;2024-02-21T08:51:15;9.70;1.00
13711;DHT22;6927;51.256;9.410;2024-02-21T08:53:40;9.80;1.00
13711;DHT22;6927;51.256;9.410;2024-02-21T08:56:06;9.90;99.90
13711;DHT22;6927;51.256;9.410;2024-02-21T08:58:36;10.00;96.00
13711;DHT22;6927;51.256;9.410;2024-02-21T09:01:03;9.90;1.00
13711;DHT22;6927;51.256;9.410;2024-02-21T09:03:31;9.70;99.90
13711;DHT22;6927;51.256;9.410;2024-02-21T09:05:57;9.70;3.20
13711;DHT22;6927;51.256;9.410;2024-02-21T09:08:23;9.60;1.00
13711;DHT22;6927;51.256;9.410;2024-02-21T09:10:49;9.50;77.10
13711;DHT22;6927;51.256;9.410;2024-02-21T09:13:15;9.50;99.90
13711;DHT22;6927;51.256;9.410;2024-02-21T09:15:40;9.60;1.00
13711;DHT22;6927;51.256;9.410;2024-02-21T09:18:06;9.70;1.00
13711;DHT22;6927;51.256;9.410;2024-02-21T09:20:49;9.80;1.00
13711;DHT22;6927;51.256;9.410;2024-02-21T09:23:37;9.90;1.00
13711;DHT22;6927;51.256;9.410;2024-02-21T09:26:13;10.00;1.00
13711;DHT22;6927;51.256;9.410;2024-02-21T09:28:52;9.90;1.00
13711;DHT22;6927;51.256;9.410;2024-02-21T09:31:26;9.90;1.00
13711;DHT22;6927;51.256;9.410;2024-02-21T09:34:07;10.00;1.00
13711;DHT22;6927;51.256;9.410;2024-02-21T09:36:38;10.10;99.90
13711;DHT22;6927;51.256;9.410;2024-02-21T09:39:14;10.00;99.90
13711;DHT22;6927;51.256;9.410;2024-02-21T09:44:47;9.70;99.90
13711;DHT22;6927;51.256;9.410;2024-02-21T09:47:21;9.90;99.90
13711;DHT22;6927;51.256;9.410;2024-02-21T09:49:50;9.80;99.90
13711;DHT22;6927;51.256;9.410;2024-02-21T09:52:20;10.00;99.90
13711;DHT22;6927;51.256;9.410;2024-02-21T09:55:28;10.30;99.90
13711;DHT22;6927;51.256;9.410;2024-02-21T09:57:53;11.20;1.00
13711;DHT22;6927;51.256;9.410;2024-02-21T10:00:19;11.30;99.90
13711;DHT22;6927;51.256;9.410;2024-02-21T10:02:50;11.00;99.90
13711;DHT22;6927;51.256;9.410;2024-02-21T10:05:18;10.80;1.00
13711;DHT22;6927;51.256;9.410;2024-02-21T10:07:50;10.60;1.00
13711;DHT22;6927;51.256;9.410;2024-02-21T10:10:20;10.50;1.00
13711;DHT22;6927;51.256;9.410;2024-02-21T10:12:53;10.40;99.90
13711;DHT22;6927;51.256;9.410;2024-02-21T10:15:27;10.40;99.90
13711;DHT22;6927;51.256;9.410;2024-02-21T10:18:04;10.20;99.90
13711;DHT22;6927;51.256;9.410;2024-02-21T10:20:31;10.20;1.00
13711;DHT22;6927;51.256;9.410;2024-02-21T10:23:12;10.30;1.00
13711;DHT22;6927;51.256;9.410;2024-02-21T10:25:44;10.50;1.00
13711;DHT22;6927;51.256;9.410;2024-02-21T10:28:18;10.50;1.00
13711;DHT22;6927;51.256;9.410;2024-02-21T10:30:51;10.60;17.70
13711;DHT22;6927;51.256;9.410;2024-02-21T10:33:17;10.60;99.90
13711;DHT22;6927;51.256;9.410;2024-02-21T10:36:11;10.50;1.00
13711;DHT22;6927;51.256;9.410;2024-02-21T10:38:40;10.40;99.90
13711;DHT22;6927;51.256;9.410;2024-02-21T10:41:09;10.20;1.00
13711;DHT22;6927;51.256;9.410;2024-02-21T10:43:50;9.90;99.90
13711;DHT22;6927;51.256;9.410;2024-02-21T10:46:23;9.50;99.90
13711;DHT22;6927;51.256;9.410;2024-02-21T10:49:20;9.40;1.00
13711;DHT22;6927;51.256;9.410;2024-02-21T10:55:32;9.50;1.00
13711;DHT22;6927;51.256;9.410;2024-02-21T10:58:04;9.20;99.90
13711;DHT22;6927;51.256;9.410;2024-02-21T11:00:30;9.10;1.00
13711;DHT22;6927;51.256;9.410;2024-02-21T11:02:57;9.00;1.00
13711;DHT22;6927;51.256;9.410;2024-02-21T11:05:24;9.00;1.00
13711;DHT22;6927;51.256;9.410;2024-02-21T11:07:51;8.90;1.00
13711;DHT22;6927;51.256;9.410;2024-02-21T11:10:24;8.90;1.00
13711;DHT22;6927;51.256;9.410;2024-02-21T11:13:04;8.90;1.00
13711;DHT22;6927;51.256;9.410;2024-02-21T11:15:30;8.90;1.00
13711;DHT22;6927;51.256;9.410;2024-02-21T11:17:58;8.90;1.00
13711;DHT22;6927;51.256;9.410;2024-02-21T11:20:37;8.80;1.00
13711;DHT22;6927;51.256;9.410;2024-02-21T11:23:03;8.80;1.00
13711;DHT22;6927;51.256;9.410;2024-02-21T11:25:29;8.80;45.40
13711;DHT22;6927;51.256;9.410;2024-02-21T11:28:00;8.70;55.70
13711;DHT22;6927;51.256;9.410;2024-02-21T11:30:35;8.60;99.90
13711;DHT22;6927;51.256;9.410;2024-02-21T11:33:02;8.60;99.90
13711;DHT22;6927;51.256;9.410;2024-02-21T11:35:32;8.60;99.90
13711;DHT22;6927;51.256;9.410;2024-02-21T11:38:09;8.60;99.90
13711;DHT22;6927;51.256;9.410;2024-02-21T11:40:38;8.50;1.00
13711;DHT22;6927;51.256;9.410;2024-02-21T11:43:04;8.50;99.90
13711;DHT22;6927;51.256;9.410;2024-02-21T11:45:30;8.50;1.00
13711;DHT22;6927;51.256;9.410;2024-02-21T11:47:58;8.60;99.90
13711;DHT22;6927;51.256;9.410;2024-02-21T11:50:26;8.60;99.90
13711;DHT22;6927;51.256;9.410;2024-02-21T11:52:54;8.60;99.90
13711;DHT22;6927;51.256;9.410;2024-02-21T11:55:21;8.70;53.50
13711;DHT22;6927;51.256;9.410;2024-02-21T11:57:51;8.60;1.00
13711;DHT22;6927;51.256;9.410;2024-02-21T12:00:18;8.60;99.90
13711;DHT22;6927;51.256;9.410;2024-02-21T12:02:47;8.70;1.00
13711;DHT22;6927;51.256;9.410;2024-02-21T12:05:13;8.80;21.90
13711;DHT22;6927;51.256;9.410;2024-02-21T12:07:40;8.90;1.00
13711;DHT22;6927;51.256;9.410;2024-02-21T12:10:12;8.90;1.00
13711;DHT22;6927;51.256;9.410;2024-02-21T12:12:39;9.10;1.00
13711;DHT22;6927;51.256;9.410;2024-02-21T12:15:05;9.20;1.00
13711;DHT22;6927;51.256;9.410;2024-02-21T12:17:35;9.30;99.90
13711;DHT22;6927;51.256;9.410;2024-02-21T12:20:02;9.50;99.90
13711;DHT22;6927;51.256;9.410;2024-02-21T12:22:31;9.50;99.90
13711;DHT22;6927;51.256;9.410;2024-02-21T12:25:00;9.70;99.90
13711;DHT22;6927;51.256;9.410;2024-02-21T12:27:28;9.90;99.90
13711;DHT22;6927;51.256;9.410;2024-02-21T12:29:54;9.90;1.00
13711;DHT22;6927;51.256;9.410;2024-02-21T12:32:19;9.90;99.90
13711;DHT22;6927;51.256;9.410;2024-02-21T12:34:45;9.80;99.90
13711;DHT22;6927;51.256;9.410;2024-02-21T12:37:11;9.90;99.90
13711;DHT22;6927;51.256;9.410;2024-02-21T12:39:38;10.10;99.90
13711;DHT22;6927;51.256;9.410;2024-02-21T12:42:04;10.10;99.90
13711;DHT22;6927;51.256;9.410;2024-02-21T12:44:29;10.10;99.90
13711;DHT22;6927;51.256;9.410;2024-02-21T12:46:58;10.20;99.90
13711;DHT22;6927;51.256;9.410;2024-02-21T12:49:28;10.20;99.90
13711;DHT22;6927;51.256;9.410;2024-02-21T12:51:55;10.20;99.90
13711;DHT22;6927;51.256;9.410;2024-02-21T12:54:21;10.20;99.90
13711;DHT22;6927;51.256;9.410;2024-02-21T12:56:46;10.10;99.90
13711;DHT22;6927;51.256;9.410;2024-02-21T12:59:12;10.00;99.90
13711;DHT22;6927;51.256;9.410;2024-02-21T13:01:37;9.90;99.90
13711;DHT22;6927;51.256;9.410;2024-02-21T13:04:03;9.70;99.90
13711;DHT22;6927;51.256;9.410;2024-02-21T13:06:29;9.60;99.90
13711;DHT22;6927;51.256;9.410;2024-02-21T13:08:54;9.50;99.90
13711;DHT22;6927;51.256;9.410;2024-02-21T13:11:20;9.60;99.90
13711;DHT22;6927;51.256;9.410;2024-02-21T13:13:46;9.70;99.90
13711;DHT22;6927;51.256;9.410;2024-02-21T13:16:11;9.80;99.90
13711;DHT22;6927;51.256;9.410;2024-02-21T13:18:37;9.60;99.90
13711;DHT22;6927;51.256;9.410;2024-02-21T13:21:08;9.50;99.90
13711;DHT22;6927;51.256;9.410;2024-02-21T13:23:33;9.60;99.90
13711;DHT22;6927;51.256;9.410;2024-02-21T13:25:59;9.60;99.90
13711;DHT22;6927;51.256;9.410;2024-02-21T13:28:24;9.50;99.90
13711;DHT22;6927;51.256;9.410;2024-02-21T13:30:50;9.50;99.90
13711;DHT22;6927;51.256;9.410;2024-02-21T13:33:16;9.40;99.90
13711;DHT22;6927;51.256;9.410;2024-02-21T13:35:41;9.30;99.90
13711;DHT22;6927;51.256;9.410;2024-02-21T13:38:07;9.30;99.90
13711;DHT22;6927;51.256;9.410;2024-02-21T13:40:33;9.30;99.90
13711;DHT22;6927;51.256;9.410;2024-02-21T13:43:00;9.30;99.90
13711;DHT22;6927;51.256;9.410;2024-02-21T13:45:26;9.20;99.90
13711;DHT22;6927;51.256;9.410;2024-02-21T13:47:52;9.10;1.00
13711;DHT22;6927;51.256;9.410;2024-02-21T13:50:18;9.00;1.00
13711;DHT22;6927;51.256;9.410;2024-02-21T13:52:44;8.80;1.00
13711;DHT22;6927;51.256;9.410;2024-02-21T13:55:09;8.70;1.00
13711;DHT22;6927;51.256;9.410;2024-02-21T13:57:36;8.60;99.90
13711;DHT22;6927;51.256;9.410;2024-02-21T14:00:03;8.60;99.90
13711;DHT22;6927;51.256;9.410;2024-02-21T14:02:29;8.70;99.90
13711;DHT22;6927;51.256;9.410;2024-02-21T14:04:54;8.70;1.00
13711;DHT22;6927;51.256;9.410;2024-02-21T14:07:20;8.70;1.00
13711;DHT22;6927;51.256;9.410;2024-02-21T14:09:46;8.70;99.90
13711;DHT22;6927;51.256;9.410;2024-02-21T14:12:11;8.80;62.20
13711;DHT22;6927;51.256;9.410;2024-02-21T14:14:37;8.70;1.00
13711;DHT22;6927;51.256;9.410;2024-02-21T14:17:03;8.80;1.00
13711;DHT22;6927;51.256;9.410;2024-02-21T14:19:29;8.80;1.00
13711;DHT22;6927;51.256;9.410;2024-02-21T14:21:55;8.80;99.90
13711;DHT22;6927;51.256;9.410;2024-02-21T14:24:22;8.90;99.90
13711;DHT22;6927;51.256;9.410;2024-02-21T14:26:48;9.00;1.00
13711;DHT22;6927;51.256;9.410;2024-02-21T14:29:14;9.00;1.00
13711;DHT22;6927;51.256;9.410;2024-02-21T14:31:39;8.90;99.90
13711;DHT22;6927;51.256;9.410;2024-02-21T14:34:05;8.80;1.00
13711;DHT22;6927;51.256;9.410;2024-02-21T14:36:33;8.80;99.90
13711;DHT22;6927;51.256;9.410;2024-02-21T14:38:58;8.90;1.00
13711;DHT22;6927;51.256;9.410;2024-02-21T14:41:24;8.90;1.00
13711;DHT22;6927;51.256;9.410;2024-02-21T14:43:50;8.80;1.00
13711;DHT22;6927;51.256;9.410;2024-02-21T14:46:15;8.80;1.00
13711;DHT22;6927;51.256;9.410;2024-02-21T14:48:41;8.80;1.00
13711;DHT22;6927;51.256;9.410;2024-02-21T14:51:06;8.90;1.00
13711;DHT22;6927;51.256;9.410;2024-02-21T14:53:32;8.80;1.00
13711;DHT22;6927;51.256;9.410;2024-02-21T14:55:58;8.80;1.00
13711;DHT22;6927;51.256;9.410;2024-02-21T14:58:23;8.70;1.00
13711;DHT22;6927;51.256;9.410;2024-02-21T15:00:49;8.70;1.00
13711;DHT22;6927;51.256;9.410;2024-02-21T15:03:16;8.70;99.90
13711;DHT22;6927;51.256;9.410;2024-02-21T15:05:45;8.70;1.00
13711;DHT22;6927;51.256;9.410;2024-02-21T15:08:10;8.80;1.00
13711;DHT22;6927;51.256;9.410;2024-02-21T15:10:37;8.80;99.90
13711;DHT22;6927;51.256;9.410;2024-02-21T15:13:03;8.80;1.00
13711;DHT22;6927;51.256;9.410;2024-02-21T15:15:29;8.80;1.00
13711;DHT22;6927;51.256;9.410;2024-02-21T15:17:54;8.80;1.00
13711;DHT22;6927;51.256;9.410;2024-02-21T15:20:20;8.80;1.00
13711;DHT22;6927;51.256;9.410;2024-02-21T15:22:46;8.80;1.00
13711;DHT22;6927;51.256;9.410;2024-02-21T15:25:11;8.80;1.00
13711;DHT22;6927;51.256;9.410;2024-02-21T15:27:43;8.80;1.00
13711;DHT22;6927;51.256;9.410;2024-02-21T15:30:12;8.80;1.00
13711;DHT22;6927;51.256;9.410;2024-02-21T15:32:39;8.90;99.90
13711;DHT22;6927;51.256;9.410;2024-02-21T15:35:14;8.90;1.00
13711;DHT22;6927;51.256;9.410;2024-02-21T15:37:49;8.80;99.90
13711;DHT22;6927;51.256;9.410;2024-02-21T15:40:24;8.80;99.90
13711;DHT22;6927;51.256;9.410;2024-02-21T15:42:52;8.80;99.90
13711;DHT22;6927;51.256;9.410;2024-02-21T15:45:19;8.90;26.30
13711;DHT22;6927;51.256;9.410;2024-02-21T15:47:44;8.80;99.90
13711;DHT22;6927;51.256;9.410;2024-02-21T15:50:10;8.80;1.00
13711;DHT22;6927;51.256;9.410;2024-02-21T15:52:36;8.80;99.90
13711;DHT22;6927;51.256;9.410;2024-02-21T15:55:06;8.70;99.90
13711;DHT22;6927;51.256;9.410;2024-02-21T15:57:37;8.60;1.00
13711;DHT22;6927;51.256;9.410;2024-02-21T16:00:03;8.60;1.00
13711;DHT22;6927;51.256;9.410;2024-02-21T16:02:29;8.60;1.00
13711;DHT22;6927;51.256;9.410;2024-02-21T16:04:55;8.60;99.90
13711;DHT22;6927;51.256;9.410;2024-02-21T16:07:21;8.60;99.90
13711;DHT22;6927;51.256;9.410;2024-02-21T16:09:47;8.60;1.00
13711;DHT22;6927;51.256;9.410;2024-02-21T16:12:15;8.60;1.00
13711;DHT22;6927;51.256;9.410;2024-02-21T16:14:41;8.60;99.90
13711;DHT22;6927;51.256;9.410;2024-02-21T16:17:07;8.60;99.90
13711;DHT22;6927;51.256;9.410;2024-02-21T16:19:48;8.60;99.90